sensor_id;sensor_type;location;lat;lon;timestamp;pressure;altitude;pressure_sealevel;temperature
74536;BMP180;63013;51.104;-115.370;2023-02-23T00:02:06;87028.40;;;21.80
74536;BMP180;63013;51.104;-115.370;2023-02-23T00:04:37;87028.60;;;21.80
74536;BMP180;63013;51.104;-115.370;2023-02-23T00:07:05;87033.60;;;21.80
74536;BMP180;63013;51.104;-115.370;2023-02-23T00:09:32;87034.80;;;21.76
74536;BMP180;63013;51.104;-115.370;2023-02-23T00:12:05;87030.00;;;21.70
74536;BMP180;63013;51.104;-115.370;2023-02-23T00:14:37;87032.80;;;21.70
74536;BMP180;63013;51.104;-115.370;2023-02-23T00:17:05;87036.20;;;21.70
74536;BMP180;63013;51.104;-115.370;2023-02-23T00:19:39;87036.80;;;21.70
74536;BMP180;63013;51.104;-115.370;2023-02-23T00:22:08;87033.20;;;21.70
74536;BMP180;63013;51.104;-115.370;2023-02-23T00:24:37;87030.80;;;21.68
74536;BMP180;63013;51.104;-115.370;2023-02-23T00:27:12;87043.40;;;21.70
74536;BMP180;63013;51.104;-115.370;2023-02-23T00:29:44;87047.20;;;21.70
74536;BMP180;63013;51.104;-115.370;2023-02-23T00:32:23;87043.40;;;21.70
74536;BMP180;63013;51.104;-115.370;2023-02-23T00:34:51;87043.20;;;21.70
74536;BMP180;63013;51.104;-115.370;2023-02-23T00:37:22;87039.20;;;21.66
74536;BMP180;63013;51.104;-115.370;2023-02-23T00:39:53;87039.00;;;21.60
74536;BMP180;63013;51.104;-115.370;2023-02-23T00:42:28;87041.00;;;21.60
74536;BMP180;63013;51.104;-115.370;2023-02-23T00:44:57;87043.40;;;21.60
74536;BMP180;63013;51.104;-115.370;2023-02-23T00:47:33;87043.60;;;21.60
74536;BMP180;63013;51.104;-115.370;2023-02-23T00:50:02;87048.80;;;21.60
74536;BMP180;63013;51.104;-115.370;2023-02-23T00:52:33;87051.00;;;21.60
74536;BMP180;63013;51.104;-115.370;2023-02-23T00:55:00;87057.00;;;21.60
74536;BMP180;63013;51.104;-115.370;2023-02-23T00:57:34;87057.80;;;21.60
74536;BMP180;63013;51.104;-115.370;2023-02-23T01:00:03;87058.00;;;21.60
74536;BMP180;63013;51.104;-115.370;2023-02-23T01:02:44;87056.20;;;21.66
74536;BMP180;63013;51.104;-115.370;2023-02-23T01:05:13;87058.40;;;21.70
74536;BMP180;63013;51.104;-115.370;2023-02-23T01:07:40;87077.60;;;21.70
74536;BMP180;63013;51.104;-115.370;2023-02-23T01:10:08;87074.20;;;21.70
74536;BMP180;63013;51.104;-115.370;2023-02-23T01:12:48;87080.80;;;21.70
74536;BMP180;63013;51.104;-115.370;2023-02-23T01:15:18;87081.00;;;21.70
74536;BMP180;63013;51.104;-115.370;2023-02-23T01:17:46;87086.40;;;21.68
74536;BMP180;63013;51.104;-115.370;2023-02-23T01:20:16;87082.20;;;21.68
74536;BMP180;63013;51.104;-115.370;2023-02-23T01:22:50;87083.60;;;21.60
74536;BMP180;63013;51.104;-115.370;2023-02-23T01:25:18;87094.40;;;21.60
74536;BMP180;63013;51.104;-115.370;2023-02-23T01:27:45;87090.60;;;21.60
74536;BMP180;63013;51.104;-115.370;2023-02-23T01:30:15;87095.40;;;21.60
74536;BMP180;63013;51.104;-115.370;2023-02-23T01:32:42;87104.60;;;21.60
74536;BMP180;63013;51.104;-115.370;2023-02-23T01:35:11;87105.20;;;21.60
74536;BMP180;63013;51.104;-115.370;2023-02-23T01:37:41;87107.20;;;21.60
74536;BMP180;63013;51.104;-115.370;2023-02-23T01:40:20;87110.80;;;21.60
74536;BMP180;63013;51.104;-115.370;2023-02-23T01:43:13;87105.60;;;21.60
74536;BMP180;63013;51.104;-115.370;2023-02-23T01:45:43;87117.40;;;21.54
74536;BMP180;63013;51.104;-115.370;2023-02-23T01:48:16;87116.80;;;21.54
74536;BMP180;63013;51.104;-115.370;2023-02-23T01:53:26;87126.00;;;21.50
74536;BMP180;63013;51.104;-115.370;2023-02-23T01:55:58;87131.00;;;21.50
74536;BMP180;63013;51.104;-115.370;2023-02-23T01:58:29;87133.40;;;21.50
74536;BMP180;63013;51.104;-115.370;2023-02-23T02:00:58;87132.00;;;21.50
74536;BMP180;63013;51.104;-115.370;2023-02-23T02:03:39;87131.80;;;21.50
74536;BMP180;63013;51.104;-115.370;2023-02-23T02:06:12;87129.40;;;21.50
74536;BMP180;63013;51.104;-115.370;2023-02-23T02:08:47;87131.60;;;21.50
74536;BMP180;63013;51.104;-115.370;2023-02-23T02:11:18;87135.60;;;21.60
74536;BMP180;63013;51.104;-115.370;2023-02-23T02:14:28;87135.80;;;21.60
74536;BMP180;63013;51.104;-115.370;2023-02-23T02:17:33;87143.60;;;21.60
74536;BMP180;63013;51.104;-115.370;2023-02-23T02:30:04;87154.40;;;21.70
74536;BMP180;63013;51.104;-115.370;2023-02-23T02:36:11;87158.80;;;21.70
74536;BMP180;63013;51.104;-115.370;2023-02-23T02:42:28;87161.00;;;21.70
74536;BMP180;63013;51.104;-115.370;2023-02-23T02:45:23;87165.60;;;21.70
74536;BMP180;63013;51.104;-115.370;2023-02-23T02:48:38;87170.20;;;21.70
74536;BMP180;63013;51.104;-115.370;2023-02-23T02:54:18;87172.20;;;21.70
74536;BMP180;63013;51.104;-115.370;2023-02-23T02:56:52;87172.60;;;21.72
74536;BMP180;63013;51.104;-115.370;2023-02-23T02:59:23;87176.00;;;21.76
74536;BMP180;63013;51.104;-115.370;2023-02-23T03:02:21;87167.60;;;21.72
74536;BMP180;63013;51.104;-115.370;2023-02-23T03:05:20;87178.80;;;21.70
74536;BMP180;63013;51.104;-115.370;2023-02-23T03:11:09;87181.80;;;21.70
74536;BMP180;63013;51.104;-115.370;2023-02-23T03:14:11;87188.60;;;21.70
74536;BMP180;63013;51.104;-115.370;2023-02-23T03:20:27;87188.20;;;21.60
74536;BMP180;63013;51.104;-115.370;2023-02-23T03:23:22;87188.00;;;21.60
74536;BMP180;63013;51.104;-115.370;2023-02-23T03:29:45;87197.00;;;21.50
74536;BMP180;63013;51.104;-115.370;2023-02-23T03:32:46;87195.40;;;21.50
74536;BMP180;63013;51.104;-115.370;2023-02-23T03:41:36;87200.80;;;21.40
74536;BMP180;63013;51.104;-115.370;2023-02-23T03:44:40;87206.20;;;21.40
74536;BMP180;63013;51.104;-115.370;2023-02-23T03:47:34;87213.00;;;21.40
74536;BMP180;63013;51.104;-115.370;2023-02-23T03:50:34;87217.80;;;21.32
74536;BMP180;63013;51.104;-115.370;2023-02-23T03:53:41;87220.40;;;21.30
74536;BMP180;63013;51.104;-115.370;2023-02-23T03:56:32;87221.40;;;21.30
74536;BMP180;63013;51.104;-115.370;2023-02-23T03:59:24;87218.00;;;21.26
74536;BMP180;63013;51.104;-115.370;2023-02-23T04:02:14;87220.60;;;21.20
74536;BMP180;63013;51.104;-115.370;2023-02-23T04:05:16;87218.60;;;21.20
74536;BMP180;63013;51.104;-115.370;2023-02-23T04:08:06;87216.20;;;21.16
74536;BMP180;63013;51.104;-115.370;2023-02-23T04:11:11;87225.60;;;21.10
74536;BMP180;63013;51.104;-115.370;2023-02-23T04:14:03;87219.80;;;21.10
74536;BMP180;63013;51.104;-115.370;2023-02-23T04:16:32;87221.20;;;21.06
74536;BMP180;63013;51.104;-115.370;2023-02-23T04:19:00;87221.00;;;21.00
74536;BMP180;63013;51.104;-115.370;2023-02-23T04:21:27;87220.20;;;21.00
74536;BMP180;63013;51.104;-115.370;2023-02-23T04:23:55;87222.20;;;20.98
74536;BMP180;63013;51.104;-115.370;2023-02-23T04:26:22;87229.00;;;20.90
74536;BMP180;63013;51.104;-115.370;2023-02-23T04:28:49;87234.20;;;20.90
74536;BMP180;63013;51.104;-115.370;2023-02-23T04:31:16;87233.60;;;20.90
74536;BMP180;63013;51.104;-115.370;2023-02-23T04:33:44;87236.00;;;20.86
74536;BMP180;63013;51.104;-115.370;2023-02-23T04:36:11;87240.40;;;20.80
74536;BMP180;63013;51.104;-115.370;2023-02-23T04:38:38;87237.80;;;20.80
74536;BMP180;63013;51.104;-115.370;2023-02-23T04:41:06;87242.20;;;20.80
74536;BMP180;63013;51.104;-115.370;2023-02-23T04:43:33;87238.20;;;20.70
74536;BMP180;63013;51.104;-115.370;2023-02-23T04:46:00;87238.80;;;20.70
74536;BMP180;63013;51.104;-115.370;2023-02-23T04:48:28;87237.80;;;20.70
74536;BMP180;63013;51.104;-115.370;2023-02-23T04:50:55;87243.40;;;20.70
74536;BMP180;63013;51.104;-115.370;2023-02-23T04:53:25;87244.20;;;20.66
74536;BMP180;63013;51.104;-115.370;2023-02-23T04:55:52;87241.20;;;20.60
74536;BMP180;63013;51.104;-115.370;2023-02-23T04:58:20;87235.80;;;20.60
74536;BMP180;63013;51.104;-115.370;2023-02-23T05:00:47;87226.00;;;20.60
74536;BMP180;63013;51.104;-115.370;2023-02-23T05:03:15;87224.20;;;20.60
74536;BMP180;63013;51.104;-115.370;2023-02-23T05:05:45;87233.80;;;20.50
74536;BMP180;63013;51.104;-115.370;2023-02-23T05:08:12;87234.80;;;20.50
74536;BMP180;63013;51.104;-115.370;2023-02-23T05:10:40;87233.00;;;20.50
74536;BMP180;63013;51.104;-115.370;2023-02-23T05:13:07;87229.40;;;20.44
74536;BMP180;63013;51.104;-115.370;2023-02-23T05:15:35;87226.00;;;20.40
74536;BMP180;63013;51.104;-115.370;2023-02-23T05:18:03;87228.00;;;20.40
74536;BMP180;63013;51.104;-115.370;2023-02-23T05:20:31;87230.20;;;20.38
74536;BMP180;63013;51.104;-115.370;2023-02-23T05:22:58;87233.40;;;20.30
74536;BMP180;63013;51.104;-115.370;2023-02-23T05:25:26;87228.20;;;20.30
74536;BMP180;63013;51.104;-115.370;2023-02-23T05:27:52;87224.20;;;20.30
74536;BMP180;63013;51.104;-115.370;2023-02-23T05:30:19;87227.40;;;20.20
74536;BMP180;63013;51.104;-115.370;2023-02-23T05:32:46;87227.60;;;20.20
74536;BMP180;63013;51.104;-115.370;2023-02-23T05:35:15;87230.20;;;20.20
74536;BMP180;63013;51.104;-115.370;2023-02-23T05:37:42;87230.40;;;20.20
74536;BMP180;63013;51.104;-115.370;2023-02-23T05:40:10;87225.60;;;20.12
74536;BMP180;63013;51.104;-115.370;2023-02-23T05:42:38;87226.60;;;20.10
74536;BMP180;63013;51.104;-115.370;2023-02-23T05:45:06;87233.80;;;20.10
74536;BMP180;63013;51.104;-115.370;2023-02-23T05:47:33;87232.80;;;20.10
74536;BMP180;63013;51.104;-115.370;2023-02-23T05:50:08;87232.20;;;20.00
74536;BMP180;63013;51.104;-115.370;2023-02-23T05:52:41;87236.60;;;20.00
74536;BMP180;63013;51.104;-115.370;2023-02-23T05:55:10;87239.60;;;20.00
74536;BMP180;63013;51.104;-115.370;2023-02-23T05:57:38;87238.00;;;19.90
74536;BMP180;63013;51.104;-115.370;2023-02-23T06:00:08;87237.00;;;19.90
74536;BMP180;63013;51.104;-115.370;2023-02-23T06:02:36;87233.60;;;19.90
74536;BMP180;63013;51.104;-115.370;2023-02-23T06:05:03;87237.00;;;19.88
74536;BMP180;63013;51.104;-115.370;2023-02-23T06:07:31;87234.80;;;19.80
74536;BMP180;63013;51.104;-115.370;2023-02-23T06:09:58;87237.60;;;19.80
74536;BMP180;63013;51.104;-115.370;2023-02-23T06:12:26;87238.60;;;19.80
74536;BMP180;63013;51.104;-115.370;2023-02-23T06:14:53;87235.80;;;19.78
74536;BMP180;63013;51.104;-115.370;2023-02-23T06:17:20;87235.40;;;19.74
74536;BMP180;63013;51.104;-115.370;2023-02-23T06:19:47;87221.80;;;19.70
74536;BMP180;63013;51.104;-115.370;2023-02-23T06:22:15;87222.40;;;19.70
74536;BMP180;63013;51.104;-115.370;2023-02-23T06:24:43;87226.40;;;19.70
74536;BMP180;63013;51.104;-115.370;2023-02-23T06:27:10;87222.20;;;19.60
74536;BMP180;63013;51.104;-115.370;2023-02-23T06:29:40;87219.00;;;19.60
74536;BMP180;63013;51.104;-115.370;2023-02-23T06:32:07;87222.00;;;19.60
74536;BMP180;63013;51.104;-115.370;2023-02-23T06:34:34;87223.80;;;19.52
74536;BMP180;63013;51.104;-115.370;2023-02-23T06:37:01;87220.40;;;19.50
74536;BMP180;63013;51.104;-115.370;2023-02-23T06:39:29;87222.40;;;19.50
74536;BMP180;63013;51.104;-115.370;2023-02-23T06:41:56;87225.40;;;19.50
74536;BMP180;63013;51.104;-115.370;2023-02-23T06:44:23;87226.60;;;19.40
74536;BMP180;63013;51.104;-115.370;2023-02-23T06:46:50;87221.80;;;19.40
74536;BMP180;63013;51.104;-115.370;2023-02-23T06:49:17;87220.20;;;19.40
74536;BMP180;63013;51.104;-115.370;2023-02-23T06:51:44;87219.40;;;19.34
74536;BMP180;63013;51.104;-115.370;2023-02-23T06:54:12;87222.40;;;19.30
74536;BMP180;63013;51.104;-115.370;2023-02-23T06:56:39;87221.40;;;19.30
74536;BMP180;63013;51.104;-115.370;2023-02-23T06:59:06;87216.80;;;19.30
74536;BMP180;63013;51.104;-115.370;2023-02-23T07:01:33;87216.00;;;19.20
74536;BMP180;63013;51.104;-115.370;2023-02-23T07:04:00;87231.40;;;19.20
74536;BMP180;63013;51.104;-115.370;2023-02-23T07:06:28;87233.20;;;19.20
74536;BMP180;63013;51.104;-115.370;2023-02-23T07:08:57;87229.60;;;19.20
74536;BMP180;63013;51.104;-115.370;2023-02-23T07:11:24;87232.20;;;19.10
74536;BMP180;63013;51.104;-115.370;2023-02-23T07:13:51;87237.00;;;19.10
74536;BMP180;63013;51.104;-115.370;2023-02-23T07:16:18;87234.80;;;19.10
74536;BMP180;63013;51.104;-115.370;2023-02-23T07:18:46;87238.00;;;19.06
74536;BMP180;63013;51.104;-115.370;2023-02-23T07:21:13;87234.20;;;19.00
74536;BMP180;63013;51.104;-115.370;2023-02-23T07:23:40;87231.60;;;19.00
74536;BMP180;63013;51.104;-115.370;2023-02-23T07:26:07;87230.60;;;18.90
74536;BMP180;63013;51.104;-115.370;2023-02-23T07:28:35;87225.80;;;18.90
74536;BMP180;63013;51.104;-115.370;2023-02-23T07:31:02;87224.00;;;18.90
74536;BMP180;63013;51.104;-115.370;2023-02-23T07:33:29;87226.60;;;18.90
74536;BMP180;63013;51.104;-115.370;2023-02-23T07:35:58;87222.60;;;18.80
74536;BMP180;63013;51.104;-115.370;2023-02-23T07:38:25;87227.20;;;18.80
74536;BMP180;63013;51.104;-115.370;2023-02-23T07:40:52;87218.40;;;18.80
74536;BMP180;63013;51.104;-115.370;2023-02-23T07:43:20;87227.60;;;18.70
74536;BMP180;63013;51.104;-115.370;2023-02-23T07:45:49;87228.60;;;18.70
74536;BMP180;63013;51.104;-115.370;2023-02-23T07:48:20;87229.80;;;18.70
74536;BMP180;63013;51.104;-115.370;2023-02-23T07:50:47;87234.00;;;18.70
74536;BMP180;63013;51.104;-115.370;2023-02-23T07:53:14;87229.40;;;18.62
74536;BMP180;63013;51.104;-115.370;2023-02-23T07:55:41;87234.80;;;18.60
74536;BMP180;63013;51.104;-115.370;2023-02-23T07:58:09;87237.60;;;18.60
74536;BMP180;63013;51.104;-115.370;2023-02-23T08:00:36;87244.80;;;18.56
74536;BMP180;63013;51.104;-115.370;2023-02-23T08:03:06;87244.60;;;18.50
74536;BMP180;63013;51.104;-115.370;2023-02-23T08:05:33;87250.60;;;18.50
74536;BMP180;63013;51.104;-115.370;2023-02-23T08:08:01;87252.80;;;18.50
74536;BMP180;63013;51.104;-115.370;2023-02-23T08:10:29;87257.00;;;18.40
74536;BMP180;63013;51.104;-115.370;2023-02-23T08:12:57;87262.60;;;18.40
74536;BMP180;63013;51.104;-115.370;2023-02-23T08:15:25;87269.00;;;18.40
74536;BMP180;63013;51.104;-115.370;2023-02-23T08:17:52;87270.80;;;18.40
74536;BMP180;63013;51.104;-115.370;2023-02-23T08:20:19;87262.40;;;18.40
74536;BMP180;63013;51.104;-115.370;2023-02-23T08:22:48;87273.00;;;18.32
74536;BMP180;63013;51.104;-115.370;2023-02-23T08:25:18;87279.60;;;18.30
74536;BMP180;63013;51.104;-115.370;2023-02-23T08:27:46;87281.80;;;18.30
74536;BMP180;63013;51.104;-115.370;2023-02-23T08:30:14;87282.20;;;18.28
74536;BMP180;63013;51.104;-115.370;2023-02-23T08:32:41;87280.60;;;18.20
74536;BMP180;63013;51.104;-115.370;2023-02-23T08:35:10;87281.40;;;18.20
74536;BMP180;63013;51.104;-115.370;2023-02-23T08:37:37;87280.80;;;18.20
74536;BMP180;63013;51.104;-115.370;2023-02-23T08:40:05;87286.20;;;18.12
74536;BMP180;63013;51.104;-115.370;2023-02-23T08:42:33;87287.20;;;18.10
74536;BMP180;63013;51.104;-115.370;2023-02-23T08:45:00;87290.60;;;18.10
74536;BMP180;63013;51.104;-115.370;2023-02-23T08:47:28;87291.00;;;18.10
74536;BMP180;63013;51.104;-115.370;2023-02-23T08:49:59;87292.40;;;18.10
74536;BMP180;63013;51.104;-115.370;2023-02-23T08:52:26;87289.20;;;18.10
74536;BMP180;63013;51.104;-115.370;2023-02-23T08:54:54;87293.00;;;18.10
74536;BMP180;63013;51.104;-115.370;2023-02-23T08:57:21;87292.60;;;18.10
74536;BMP180;63013;51.104;-115.370;2023-02-23T08:59:49;87287.00;;;18.10
74536;BMP180;63013;51.104;-115.370;2023-02-23T09:02:16;87294.40;;;18.10
74536;BMP180;63013;51.104;-115.370;2023-02-23T09:04:43;87292.00;;;18.08
74536;BMP180;63013;51.104;-115.370;2023-02-23T09:07:16;87293.40;;;18.02
74536;BMP180;63013;51.104;-115.370;2023-02-23T09:09:43;87299.60;;;18.00
74536;BMP180;63013;51.104;-115.370;2023-02-23T09:12:10;87298.00;;;18.00
74536;BMP180;63013;51.104;-115.370;2023-02-23T09:14:38;87298.80;;;18.00
74536;BMP180;63013;51.104;-115.370;2023-02-23T09:17:06;87307.80;;;18.00
74536;BMP180;63013;51.104;-115.370;2023-02-23T09:19:33;87308.40;;;17.98
74536;BMP180;63013;51.104;-115.370;2023-02-23T09:22:00;87312.80;;;17.96
74536;BMP180;63013;51.104;-115.370;2023-02-23T09:24:27;87309.40;;;17.96
74536;BMP180;63013;51.104;-115.370;2023-02-23T09:26:54;87313.40;;;17.98
74536;BMP180;63013;51.104;-115.370;2023-02-23T09:29:21;87312.20;;;18.00
74536;BMP180;63013;51.104;-115.370;2023-02-23T09:31:49;87315.20;;;18.00
74536;BMP180;63013;51.104;-115.370;2023-02-23T09:34:19;87311.20;;;18.00
74536;BMP180;63013;51.104;-115.370;2023-02-23T09:36:46;87308.80;;;18.00
74536;BMP180;63013;51.104;-115.370;2023-02-23T09:39:13;87301.80;;;17.98
74536;BMP180;63013;51.104;-115.370;2023-02-23T09:42:19;87302.60;;;17.92
74536;BMP180;63013;51.104;-115.370;2023-02-23T09:48:21;87313.60;;;17.90
74536;BMP180;63013;51.104;-115.370;2023-02-23T09:50:55;87316.00;;;17.90
74536;BMP180;63013;51.104;-115.370;2023-02-23T09:59:19;87312.20;;;17.90
74536;BMP180;63013;51.104;-115.370;2023-02-23T10:05:00;87312.40;;;17.90
74536;BMP180;63013;51.104;-115.370;2023-02-23T10:13:20;87316.80;;;17.90
74536;BMP180;63013;51.104;-115.370;2023-02-23T10:15:59;87315.80;;;17.90
74536;BMP180;63013;51.104;-115.370;2023-02-23T10:19:04;87314.00;;;17.90
74536;BMP180;63013;51.104;-115.370;2023-02-23T10:21:44;87318.20;;;17.90
74536;BMP180;63013;51.104;-115.370;2023-02-23T10:27:13;87328.00;;;17.86
74536;BMP180;63013;51.104;-115.370;2023-02-23T10:30:01;87332.40;;;17.88
74536;BMP180;63013;51.104;-115.370;2023-02-23T10:32:48;87329.60;;;17.86
74536;BMP180;63013;51.104;-115.370;2023-02-23T10:35:20;87327.20;;;17.88
74536;BMP180;63013;51.104;-115.370;2023-02-23T10:37:50;87333.00;;;17.90
74536;BMP180;63013;51.104;-115.370;2023-02-23T10:40:28;87332.00;;;17.90
74536;BMP180;63013;51.104;-115.370;2023-02-23T10:42:59;87334.00;;;17.90
74536;BMP180;63013;51.104;-115.370;2023-02-23T10:45:34;87332.80;;;17.90
74536;BMP180;63013;51.104;-115.370;2023-02-23T10:48:07;87338.80;;;17.90
74536;BMP180;63013;51.104;-115.370;2023-02-23T10:50:40;87340.40;;;17.90
74536;BMP180;63013;51.104;-115.370;2023-02-23T10:53:27;87345.20;;;17.90
74536;BMP180;63013;51.104;-115.370;2023-02-23T10:56:07;87343.80;;;17.90
74536;BMP180;63013;51.104;-115.370;2023-02-23T10:58:53;87338.20;;;17.80
74536;BMP180;63013;51.104;-115.370;2023-02-23T11:01:40;87339.80;;;17.80
74536;BMP180;63013;51.104;-115.370;2023-02-23T11:04:20;87338.60;;;17.80
74536;BMP180;63013;51.104;-115.370;2023-02-23T11:06:49;87341.60;;;17.80
74536;BMP180;63013;51.104;-115.370;2023-02-23T11:09:30;87340.80;;;17.80
74536;BMP180;63013;51.104;-115.370;2023-02-23T11:12:19;87345.40;;;17.80
74536;BMP180;63013;51.104;-115.370;2023-02-23T11:14:53;87350.60;;;17.80
74536;BMP180;63013;51.104;-115.370;2023-02-23T11:20:05;87351.40;;;17.80
74536;BMP180;63013;51.104;-115.370;2023-02-23T11:22:41;87360.20;;;17.80
74536;BMP180;63013;51.104;-115.370;2023-02-23T11:25:30;87363.20;;;17.80
74536;BMP180;63013;51.104;-115.370;2023-02-23T11:27:58;87369.40;;;17.80
74536;BMP180;63013;51.104;-115.370;2023-02-23T11:30:35;87370.40;;;17.80
74536;BMP180;63013;51.104;-115.370;2023-02-23T11:33:20;87376.80;;;17.80
74536;BMP180;63013;51.104;-115.370;2023-02-23T11:35:58;87375.60;;;17.80
74536;BMP180;63013;51.104;-115.370;2023-02-23T11:38:28;87371.20;;;17.80
74536;BMP180;63013;51.104;-115.370;2023-02-23T11:41:20;87372.20;;;17.80
74536;BMP180;63013;51.104;-115.370;2023-02-23T11:43:56;87376.40;;;17.80
74536;BMP180;63013;51.104;-115.370;2023-02-23T11:46:27;87381.00;;;17.80
74536;BMP180;63013;51.104;-115.370;2023-02-23T11:49:07;87371.80;;;17.80
74536;BMP180;63013;51.104;-115.370;2023-02-23T11:51:39;87374.20;;;17.80
74536;BMP180;63013;51.104;-115.370;2023-02-23T11:54:28;87370.80;;;17.90
74536;BMP180;63013;51.104;-115.370;2023-02-23T11:57:01;87374.40;;;17.90
74536;BMP180;63013;51.104;-115.370;2023-02-23T11:59:40;87376.20;;;17.90
74536;BMP180;63013;51.104;-115.370;2023-02-23T12:02:26;87378.20;;;18.00
74536;BMP180;63013;51.104;-115.370;2023-02-23T12:05:23;87390.40;;;18.00
74536;BMP180;63013;51.104;-115.370;2023-02-23T12:10:46;87393.60;;;18.10
74536;BMP180;63013;51.104;-115.370;2023-02-23T12:22:22;87403.60;;;18.20
74536;BMP180;63013;51.104;-115.370;2023-02-23T12:25:09;87407.60;;;18.20
74536;BMP180;63013;51.104;-115.370;2023-02-23T12:27:47;87408.60;;;18.20
74536;BMP180;63013;51.104;-115.370;2023-02-23T12:33:33;87413.60;;;18.30
74536;BMP180;63013;51.104;-115.370;2023-02-23T12:41:44;87413.20;;;18.40
74536;BMP180;63013;51.104;-115.370;2023-02-23T12:44:53;87412.60;;;18.40
74536;BMP180;63013;51.104;-115.370;2023-02-23T12:51:05;87424.80;;;18.50
74536;BMP180;63013;51.104;-115.370;2023-02-23T12:53:42;87421.40;;;18.50
74536;BMP180;63013;51.104;-115.370;2023-02-23T12:56:38;87424.60;;;18.50
74536;BMP180;63013;51.104;-115.370;2023-02-23T12:59:36;87415.40;;;18.60
74536;BMP180;63013;51.104;-115.370;2023-02-23T13:02:45;87425.60;;;18.60
74536;BMP180;63013;51.104;-115.370;2023-02-23T13:05:27;87425.60;;;18.60
74536;BMP180;63013;51.104;-115.370;2023-02-23T13:11:21;87433.00;;;18.70
74536;BMP180;63013;51.104;-115.370;2023-02-23T13:14:21;87427.80;;;18.70
74536;BMP180;63013;51.104;-115.370;2023-02-23T13:17:03;87432.00;;;18.70
74536;BMP180;63013;51.104;-115.370;2023-02-23T13:19:49;87430.40;;;18.80
74536;BMP180;63013;51.104;-115.370;2023-02-23T13:25:06;87436.20;;;18.80
74536;BMP180;63013;51.104;-115.370;2023-02-23T13:27:48;87434.60;;;18.90
74536;BMP180;63013;51.104;-115.370;2023-02-23T13:30:17;87432.20;;;18.90
74536;BMP180;63013;51.104;-115.370;2023-02-23T13:32:46;87428.60;;;18.90
74536;BMP180;63013;51.104;-115.370;2023-02-23T13:35:17;87435.00;;;19.00
74536;BMP180;63013;51.104;-115.370;2023-02-23T13:38:38;87426.60;;;19.00
74536;BMP180;63013;51.104;-115.370;2023-02-23T13:41:02;87430.40;;;19.02
74536;BMP180;63013;51.104;-115.370;2023-02-23T13:43:51;87436.00;;;19.10
74536;BMP180;63013;51.104;-115.370;2023-02-23T13:47:08;87438.40;;;19.10
74536;BMP180;63013;51.104;-115.370;2023-02-23T13:49:55;87443.00;;;19.20
74536;BMP180;63013;51.104;-115.370;2023-02-23T13:54:59;87438.60;;;19.30
74536;BMP180;63013;51.104;-115.370;2023-02-23T13:57:31;87440.60;;;19.30
74536;BMP180;63013;51.104;-115.370;2023-02-23T13:59:59;87442.40;;;19.40
74536;BMP180;63013;51.104;-115.370;2023-02-23T14:02:38;87443.20;;;19.40
74536;BMP180;63013;51.104;-115.370;2023-02-23T14:05:22;87444.20;;;19.48
74536;BMP180;63013;51.104;-115.370;2023-02-23T14:08:04;87446.00;;;19.50
74536;BMP180;63013;51.104;-115.370;2023-02-23T14:10:43;87448.00;;;19.50
74536;BMP180;63013;51.104;-115.370;2023-02-23T14:16:16;87449.20;;;19.52
74536;BMP180;63013;51.104;-115.370;2023-02-23T14:19:34;87450.60;;;19.60
74536;BMP180;63013;51.104;-115.370;2023-02-23T14:22:16;87459.40;;;19.60
74536;BMP180;63013;51.104;-115.370;2023-02-23T14:39:12;87474.20;;;19.80
74536;BMP180;63013;51.104;-115.370;2023-02-23T14:41:58;87476.60;;;19.80
74536;BMP180;63013;51.104;-115.370;2023-02-23T14:44:30;87482.80;;;19.80
74536;BMP180;63013;51.104;-115.370;2023-02-23T14:47:15;87483.00;;;19.90
74536;BMP180;63013;51.104;-115.370;2023-02-23T14:50:05;87483.20;;;19.90
74536;BMP180;63013;51.104;-115.370;2023-02-23T14:52:41;87481.80;;;19.90
74536;BMP180;63013;51.104;-115.370;2023-02-23T14:57:41;87478.80;;;19.94
74536;BMP180;63013;51.104;-115.370;2023-02-23T15:03:05;87490.60;;;20.00
74536;BMP180;63013;51.104;-115.370;2023-02-23T15:05:47;87491.40;;;20.00
74536;BMP180;63013;51.104;-115.370;2023-02-23T15:08:22;87488.00;;;20.00
74536;BMP180;63013;51.104;-115.370;2023-02-23T15:11:07;87497.00;;;20.10
74536;BMP180;63013;51.104;-115.370;2023-02-23T15:13:41;87501.40;;;20.10
74536;BMP180;63013;51.104;-115.370;2023-02-23T15:16:17;87497.60;;;20.20
74536;BMP180;63013;51.104;-115.370;2023-02-23T15:18:45;87500.40;;;20.20
74536;BMP180;63013;51.104;-115.370;2023-02-23T15:21:19;87503.00;;;20.30
74536;BMP180;63013;51.104;-115.370;2023-02-23T15:23:51;87502.40;;;20.32
74536;BMP180;63013;51.104;-115.370;2023-02-23T15:26:31;87500.80;;;20.40
74536;BMP180;63013;51.104;-115.370;2023-02-23T15:29:18;87505.60;;;20.40
74536;BMP180;63013;51.104;-115.370;2023-02-23T15:31:50;87518.20;;;20.50
74536;BMP180;63013;51.104;-115.370;2023-02-23T15:34:26;87514.20;;;20.50
74536;BMP180;63013;51.104;-115.370;2023-02-23T15:37:39;87505.80;;;20.52
74536;BMP180;63013;51.104;-115.370;2023-02-23T15:40:19;87515.80;;;20.60
74536;BMP180;63013;51.104;-115.370;2023-02-23T15:42:58;87514.20;;;20.60
74536;BMP180;63013;51.104;-115.370;2023-02-23T15:45:44;87519.40;;;20.60
74536;BMP180;63013;51.104;-115.370;2023-02-23T15:48:22;87522.60;;;20.70
74536;BMP180;63013;51.104;-115.370;2023-02-23T15:50:55;87524.20;;;20.70
74536;BMP180;63013;51.104;-115.370;2023-02-23T15:53:37;87525.00;;;20.80
74536;BMP180;63013;51.104;-115.370;2023-02-23T15:56:26;87530.40;;;20.80
74536;BMP180;63013;51.104;-115.370;2023-02-23T15:59:21;87536.00;;;20.88
74536;BMP180;63013;51.104;-115.370;2023-02-23T16:01:57;87543.20;;;20.90
74536;BMP180;63013;51.104;-115.370;2023-02-23T16:04:38;87547.80;;;20.90
74536;BMP180;63013;51.104;-115.370;2023-02-23T16:07:24;87549.20;;;20.90
74536;BMP180;63013;51.104;-115.370;2023-02-23T16:10:13;87547.80;;;20.90
74536;BMP180;63013;51.104;-115.370;2023-02-23T16:12:58;87549.20;;;20.90
74536;BMP180;63013;51.104;-115.370;2023-02-23T16:15:32;87540.20;;;20.90